Hualapai Flat, Nevada Weather observations

Data are for 10 minute period ending at time listed.
 Day   Time   Solar   Ave.   Ave.  Ave.  Vector  Max.   Baro.   Total    
  of    of     Rad.   Air    Rel.  Wind   Wind   Wind  Press.  Precip.   
Year   Day            Temp.  Hum.  Speed  Dir.   Gust                    
2017   (PST)  Kw/m2    F      %     mph   deg.    mph    mb.     in.     
-------------------------------------------------------------------------
  80   15:30   0.23   48.1    64    5.7   142    11.2   871.3    0.00 
  80   15:40   0.18   48.0    61    6.5   355    21.8   871.3    0.00 
  80   15:50   0.18   47.9    62    7.3     3    15.3   871.3    0.00 
  80   16:00   0.17   48.0    57    7.4   281    15.2   871.4    0.00 
  80   16:10   0.13   47.5    61    6.8   318    14.5   871.3    0.00 
  80   16:20   0.09   47.1    63    8.8   342    14.1   871.2    0.00 
  80   16:30   0.09   46.9    66    9.9   358    14.7   871.2    0.00 
  80   16:40   0.10   46.8    63   11.3   342    15.9   871.3    0.00 
  80   16:50   0.13   46.7    64    9.9   345    14.0   871.3    0.00 
  80   17:00   0.28   47.7    59    9.6   341    14.2   871.2    0.00 
  80   17:10   0.17   48.4    58    8.0   343    13.3   871.4    0.00 
  80   17:20   0.12   48.2    54    5.6    13    11.9   871.2    0.00 
  80   17:30   0.10   47.6    56    6.4    97    10.4   871.0    0.00 
  80   17:40   0.07   47.1    57    5.8    40     9.5   871.2    0.00 
  80   17:50   0.04   46.2    62    7.4    84    11.1   871.1    0.00 
  80   18:00   0.02   45.6    62    8.0   131    13.6   871.1    0.00 
  80   18:10   0.01   45.2    60    7.9   102    12.0   870.7    0.00 
  80   18:20   0.00   44.7    62    8.3    76    13.1   870.8    0.00 
  80   18:30   0.00   44.7    60   10.7    88    15.6   870.7    0.00 
  80   18:40   0.00   44.0    63    7.8   103    11.2   870.8    0.00 
  80   18:50   0.00   43.2    65    8.9    95    13.1   870.8    0.00 
  80   19:00   0.00   43.5    62    9.6   103    15.5   871.2    0.00 
  80   19:10   0.00   43.0    62    9.4   101    14.1   871.2    0.00 
  80   19:20   0.00   43.3    61   10.3   100    15.6   871.3    0.00 
  80   19:30   0.00   43.6    61   10.2   102    14.7   871.3    0.00 
  80   19:40   0.00   43.2    64   10.1   108    15.2   871.3    0.00 
  80   19:50   0.00   43.6    61    7.8   100    12.2   871.3    0.00 
  80   20:00   0.00   42.8    61    9.5    79    11.8   871.4    0.00 
  80   20:10   0.00   43.2    57    8.0    69    18.0   871.4    0.00 
  80   20:20   0.00   44.8    52    7.4   127    16.6   871.6    0.00 
  80   20:30   0.00   43.5    57    5.3   258    13.3   871.8    0.00 
  80   20:40   0.00   43.0    57    3.4   223     7.1   872.1    0.00 
  80   20:50   0.00   42.3    58    8.2   257    14.2   871.8    0.00 
  80   21:00   0.00   41.6    60    4.5   282    10.3   872.1    0.00 
  80   21:10   0.00   41.2    60    2.7    46     5.8   872.3    0.00 
  80   21:20   0.00   41.5    60    5.1   329     6.4   872.0    0.00 
  80   21:30   0.00   41.1    60    3.0   276     4.7   872.1    0.00 
  80   21:40   0.00   39.9    63    5.8   288     8.0   872.2    0.00 
  80   21:50   0.00   40.8    58    9.2   282    15.7   871.9    0.00 
  80   22:00   0.00   43.1    47    9.2   248    15.9   871.8    0.00 
  80   22:10   0.00   41.9    56    6.8   263    10.8   871.9    0.00 
  80   22:20   0.00   39.6    60    4.3   352     7.1   872.0    0.00 
  80   22:30   0.00   42.2    53    5.0   351    12.8   871.7    0.00 
  80   22:40   0.00   41.4    54    2.6   271     6.8   872.2    0.00 
  80   22:50   0.00   41.6    53    1.7   169     3.1   872.2    0.00 
  80   23:00   0.00   42.3    51    0.4   329     3.0   872.2    0.00 
  80   23:10   0.00   43.3    48    2.5    51     4.0   872.0    0.00 
  80   23:20   0.00   40.9    59    4.2   293     8.3   872.0    0.00 
  80   23:30   0.00   39.0    65    5.6   330     8.3   872.0    0.00 
  80   23:40   0.00   38.1    65    6.4    14    12.3   871.8    0.00 
  80   23:50   0.00   40.0    60    6.1   343    11.2   871.7    0.00 
  81    0:00   0.00   41.6    50    8.3   353    12.3   871.6    0.00 
  81    0:10   0.00   43.3    42    8.2   319    14.0   871.6    0.00 
  81    0:20   0.00   42.5    44    7.5   302    11.3   871.6    0.00 
  81    0:30   0.00   41.4    46    7.3   294    10.6   871.6    0.00 
  81    0:40   0.00   41.8    44    4.7   248     9.1   871.7    0.00 
  81    0:50   0.00   41.4    46    5.4   278    12.1   871.8    0.00 
  81    1:00   0.00   42.0    43    5.8   260     9.6   871.8    0.00 
  81    1:10   0.00   41.0    46    7.1   301    10.3   871.8    0.00 
  81    1:20   0.00   42.0    42    6.3   287    11.9   871.8    0.00 
  81    1:30   0.00   40.5    49    7.3   294    10.7   871.6    0.00 
  81    1:40   0.00   38.2    55    7.4   295     8.6   871.4    0.00 
  81    1:50   0.00   37.6    56    6.7   294     9.4   871.3    0.00 
  81    2:00   0.00   38.2    53    5.1   283     6.8   871.2    0.00 
  81    2:10   0.00   36.6    57    3.5   165     6.6   871.3    0.00 
  81    2:20   0.00   37.8    53    2.5   206     4.6   871.3    0.00 
  81    2:30   0.00   37.8    53    1.6   255     4.7   871.3    0.00 
  81    2:40   0.00   37.9    53    3.1   266     7.5   871.2    0.00 
  81    2:50   0.00   35.4    62    5.2   296     7.6   871.0    0.00 
  81    3:00   0.00   33.4    66    2.5    52     4.5   871.1    0.00 
  81    3:10   0.00   33.9    66    4.0   166     5.8   871.3    0.00 
  81    3:20   0.00   34.8    64    4.1   223     7.3   871.3    0.00 
  81    3:30   0.00   36.3    62    4.5   107     6.8   871.0    0.00 
  81    3:40   0.00   35.5    62    1.2   240     4.0   871.1    0.00 
  81    3:50   0.00   35.5    64    3.3   262     9.1   871.2    0.00 
  81    4:00   0.00   36.2    64    3.1   111     9.3   871.3    0.00 
  81    4:10   0.00   36.4    63    1.2   140     5.0   871.4    0.00 
  81    4:20   0.00   36.6    61    0.6   343     2.3   871.5    0.00 
  81    4:30   0.00   34.8    64    2.1   305     4.4   871.4    0.00 
  81    4:40   0.00   35.3    65    4.5   300     9.1   871.5    0.00 
  81    4:50   0.00   32.6    73    5.4   289     8.8   871.7    0.00 
  81    5:00   0.00   33.5    72    5.3   287     9.4   871.7    0.00 
  81    5:10   0.00   33.5    72    3.8   236     8.0   871.7    0.00 
  81    5:20   0.00   32.7    70    2.9    42     5.9   871.8    0.00 
  81    5:30   0.00   31.8    73    2.5   346     3.7   871.8    0.00 
  81    5:40   0.00   33.2    72    4.1   329     5.0   871.8    0.00 
  81    5:50   0.00   34.6    70    1.8    10     3.4   871.8    0.00 
  81    6:00   0.00   33.7    70    4.4   242     6.1   871.8    0.00 
  81    6:10   0.01   34.3    68    3.9   234     5.3   872.0    0.00 
  81    6:20   0.01   33.5    70    4.4   245     6.8   872.0    0.00 
  81    6:30   0.03   33.3    72    4.3   253     6.9   872.2    0.00 
  81    6:40   0.10   33.5    73    3.3   241     5.1   872.3    0.00 
  81    6:50   0.18   34.4    72    1.9    94     3.5   872.4    0.00 
  81    7:00   0.22   35.8    73    1.0    73     1.9   872.4    0.00 
  81    7:10   0.26   39.0    72    0.7   185     4.0   872.5    0.00 
  81    7:20   0.31   42.3    69    4.1   204     5.8   872.4    0.00 
  81    7:30   0.35   43.0    65    4.7   159     6.6   872.3    0.00 
  81    7:40   0.37   42.4    64    4.7   138     7.6   872.3    0.00 
  81    7:50   0.40   42.3    65    3.1   148     5.0   872.3    0.00 
  81    8:00   0.43   44.8    62    4.4   174     7.1   872.3    0.00 
  81    8:10   0.35   45.6    60    3.7   175     7.2   872.5    0.00 
  81    8:20   0.23   43.6    59    4.9   127     7.8   872.5    0.00 
  81    8:30   0.23   42.2    64    4.8   126     7.5   872.5    0.00 
  81    8:40   0.21   42.0    65    3.9    94     5.8   872.6    0.00 
  81    8:50   0.21   42.0    64    2.7    83     4.5   872.7    0.00 
  81    9:00   0.24   42.4    65    1.9    92     3.5   872.7    0.00 
  81    9:10   0.24   42.9    65    4.5    25     7.5   872.7    0.00 
  81    9:20   0.22   43.3    65    2.4    42     5.6   872.8    0.00 
  81    9:30   0.17   43.8    62    2.2    30     3.1   872.8    0.00 
  81    9:40   0.18   44.1    61    1.4    23     3.1   872.7    0.00 
  81    9:50   0.19   44.6    60    2.8    26     4.2   872.7    0.00 
  81   10:00   0.21   45.0    59    2.9    21     4.5   872.7    0.00 
  81   10:10   0.23   45.5    58    0.8    38     2.7   872.7    0.00 
  81   10:20   0.23   46.4    57    0.5     9     1.7   872.7    0.00 
  81   10:30   0.23   46.5    54    2.4    46     5.6   872.9    0.00 
  81   10:40   0.23   46.2    52    2.8    68     5.8   873.0    0.00 
  81   10:50   0.28   46.6    55    4.2    88     7.4   873.0    0.00 
  81   11:00   0.29   46.8    55    4.8    93     8.6   873.0    0.00 
  81   11:10   0.24   46.7    57    6.9   132     9.9   873.0    0.00 
  81   11:20   0.26   47.0    57    4.1   154     8.8   873.0    0.00 
  81   11:30   0.34   48.2    54    5.4   168     8.9   873.0    0.00 
  81   11:40   0.43   49.3    52    3.5   190     7.5   873.0    0.00 
  81   11:50   0.45   49.3    49    3.6   159     5.8   872.9    0.00 
  81   12:00   0.35   50.6    50    6.4   167    15.7   872.8    0.00 
  81   12:10   0.53   49.5    54    8.7   143    12.9   872.6    0.00 
  81   12:20   0.68   48.6    54    4.9   117    10.7   872.6    0.00 
  81   12:30   0.81   50.5    55    5.3   151    10.6   872.5    0.00 
  81   12:40   0.58   49.8    53    4.2   110     8.7   872.4    0.00 
  81   12:50   0.62   49.0    54    4.1    41     9.4   872.3    0.00 
  81   13:00   0.35   49.0    54    5.7    76    10.4   872.3    0.00 
  81   13:10   0.61   49.9    54    7.3   211    12.4   872.3    0.00 
  81   13:20   0.82   51.5    53   10.2   236    16.4   872.2    0.00 
  81   13:30   0.79   52.8    50   12.6   243    17.8   872.0    0.00 
  81   13:40   0.60   51.0    50   11.7   256    18.3   871.9    0.00 
  81   13:50   0.49   51.2    49    7.9   237    12.6   871.9    0.00 
  81   14:00   0.32   50.8    46    8.0   251    12.9   871.9    0.00 
  81   14:10   0.31   50.2    46    5.8   249    10.4   871.9    0.00 
  81   14:20   0.31   50.6    48    5.4   235    12.6   871.8    0.00 
  81   14:30   0.25   50.3    49   10.8   249    15.7   871.6    0.00 
  81   14:40   0.28   50.0    48   10.2   250    14.6   871.6    0.00 
  81   14:50   0.29   50.5    47    7.9   241    14.4   871.5    0.00 
  81   15:00   0.29   51.3    46    5.7   229    10.5   871.3    0.00 
  81   15:10   0.27   51.4    46    6.5   256    14.2   871.3    0.00 
  81   15:20   0.40   51.6    48   11.2   253    18.3   871.2    0.00 

Return to Hualapai Flat graphs page.


Western Regional Climate Center,wrcc@dri.edu